Time;durP1;ratioP1;P1;durP2;ratioP2;P2;SDS_P1;SDS_P2;PMS_P1;PMS_P2;Temp;Humidity;BMP_temperature;BMP_pressure;BME280_temperature;BME280_humidity;BME280_pressure;Samples;Min_cycle;Max_cycle;Signal;HPM_P1;HPM_P2
2022/05/16 00:02:11;;;;;;;5.72;3.00;;;;;;;9.21;69.41;99595.43;1735344;82;21120;-76
2022/05/16 00:04:43;;;;;;;2.92;2.52;;;;;;;9.14;69.35;99593.85;1735193;82;21812;-77
2022/05/16 00:07:11;;;;;;;7.87;3.17;;;;;;;9.11;69.25;99592.62;1731995;82;21073;-77
2022/05/16 00:09:38;;;;;;;14.30;3.30;;;;;;;9.07;69.00;99594.94;1732373;82;21062;-76
2022/05/16 00:12:05;;;;;;;6.20;3.02;;;;;;;9.00;69.23;99594.23;1732386;82;21043;-77
2022/05/16 00:14:32;;;;;;;5.75;3.20;;;;;;;8.97;69.14;99598.71;1738007;82;21503;-77
2022/05/16 00:17:00;;;;;;;10.98;2.72;;;;;;;8.89;69.14;99597.16;1743280;82;21110;-77
2022/05/16 00:19:28;;;;;;;7.40;2.50;;;;;;;8.84;69.07;99595.53;1743530;82;21075;-77
2022/05/16 00:21:56;;;;;;;4.42;2.60;;;;;;;8.78;69.09;99597.88;1743615;82;21019;-76
2022/05/16 00:24:26;;;;;;;7.08;2.58;;;;;;;8.72;69.47;99598.91;1743225;82;21130;-77
2022/05/16 00:26:51;;;;;;;5.28;2.40;;;;;;;8.69;69.75;99600.30;1743817;82;21043;-77
2022/05/16 00:29:18;;;;;;;5.00;2.75;;;;;;;8.68;69.85;99604.27;1743507;82;21570;-77
2022/05/16 00:31:44;;;;;;;3.30;2.35;;;;;;;8.64;69.81;99600.87;1743195;82;21098;-76
2022/05/16 00:34:12;;;;;;;4.83;2.37;;;;;;;8.58;69.63;99601.47;1743319;82;21067;-77
2022/05/16 00:36:39;;;;;;;2.35;2.08;;;;;;;8.53;69.92;99602.42;1746371;81;21076;-76
2022/05/16 00:39:06;;;;;;;5.47;2.40;;;;;;;8.50;70.13;99600.34;1752803;81;21045;-76
2022/05/16 00:41:33;;;;;;;2.72;1.82;;;;;;;8.46;70.55;99598.24;1752449;80;21838;-76
2022/05/16 00:43:59;;;;;;;2.77;2.00;;;;;;;8.44;70.99;99599.16;1752585;81;20973;-77
2022/05/16 00:46:29;;;;;;;3.77;2.00;;;;;;;8.42;71.36;99603.10;1752863;81;20989;-77
2022/05/16 00:48:56;;;;;;;4.72;2.12;;;;;;;8.39;71.21;99607.14;1752298;81;21006;-77
2022/05/16 00:51:26;;;;;;;4.65;2.20;;;;;;;8.33;71.74;99604.19;1752554;81;21146;-77
2022/05/16 00:54:01;;;;;;;4.28;2.02;;;;;;;8.31;71.96;99606.45;1752601;81;21974;-77
2022/05/16 00:56:28;;;;;;;4.95;2.12;;;;;;;8.29;72.20;99606.48;1729309;81;21080;-77
2022/05/16 00:58:55;;;;;;;3.15;2.00;;;;;;;8.28;71.68;99603.44;1752544;81;21091;-76
2022/05/16 01:06:54;;;;;;;6.72;2.27;;;;;;;8.21;72.69;99603.64;1752436;81;21158;-77
2022/05/16 01:09:20;;;;;;;2.77;2.42;;;;;;;8.13;72.68;99603.35;1752184;81;21001;-77
2022/05/16 01:11:46;;;;;;;8.90;2.52;;;;;;;8.09;72.96;99599.55;1752295;81;21649;-77
2022/05/16 01:14:43;;;;;;;6.58;3.17;;;;;;;8.06;73.25;99607.02;1752331;81;22040;-77
2022/05/16 01:17:11;;;;;;;4.62;2.62;;;;;;;8.04;73.40;99610.59;1752359;81;20976;-76
2022/05/16 01:19:37;;;;;;;8.45;2.83;;;;;;;8.01;73.46;99602.33;1752324;81;21158;-77
2022/05/16 01:22:34;;;;;;;6.53;3.00;;;;;;;7.99;73.57;99600.20;1752669;81;20990;-76
2022/05/16 01:25:10;;;;;;;8.73;2.92;;;;;;;7.93;73.79;99599.88;1750024;81;21508;-76
2022/05/16 01:27:47;;;;;;;6.58;2.80;;;;;;;7.87;73.94;99592.59;1727828;81;21029;-77
2022/05/16 01:30:18;;;;;;;8.78;3.65;;;;;;;7.81;73.68;99591.84;1752552;81;21088;-77
2022/05/16 01:32:45;;;;;;;7.92;3.08;;;;;;;7.77;73.57;99591.50;1752487;81;21500;-76
2022/05/16 01:35:12;;;;;;;4.70;3.00;;;;;;;7.77;73.74;99594.58;1752581;81;21516;-77
2022/05/16 01:40:23;;;;;;;8.43;3.12;;;;;;;7.69;74.51;99603.91;1752905;81;21001;-77
2022/05/16 01:42:51;;;;;;;6.53;2.50;;;;;;;7.62;74.91;99595.77;1752518;81;21029;-76
2022/05/16 01:45:17;;;;;;;14.30;2.80;;;;;;;7.54;75.19;99601.61;1752636;81;21496;-76
2022/05/16 01:47:44;;;;;;;6.30;2.30;;;;;;;7.50;75.55;99601.24;1752455;81;21163;-77
2022/05/16 01:50:10;;;;;;;12.20;3.05;;;;;;;7.46;76.08;99603.52;1752261;81;21067;-77
2022/05/16 01:52:37;;;;;;;5.03;2.70;;;;;;;7.42;76.47;99597.03;1752736;81;21074;-77
2022/05/16 01:55:05;;;;;;;10.82;2.70;;;;;;;7.38;76.58;99605.86;1752510;81;21060;-77
2022/05/16 01:57:32;;;;;;;5.78;2.40;;;;;;;7.36;76.72;99606.34;1752539;81;21193;-77
2022/05/16 01:59:58;;;;;;;7.33;2.37;;;;;;;7.38;76.82;99608.48;1752538;81;21049;-77
2022/05/16 02:02:25;;;;;;;4.47;2.55;;;;;;;7.38;76.71;99601.94;1752552;81;21131;-77
2022/05/16 02:04:51;;;;;;;5.72;2.50;;;;;;;7.37;76.45;99602.81;1752023;81;21122;-77
2022/05/16 02:07:19;;;;;;;4.37;2.47;;;;;;;7.34;76.76;99608.10;1743966;81;21083;-77
2022/05/16 02:09:46;;;;;;;5.50;2.65;;;;;;;7.32;76.88;99602.50;1743671;82;21206;-77
2022/05/16 02:12:12;;;;;;;6.28;2.40;;;;;;;7.31;76.87;99595.53;1743352;82;20993;-76
2022/05/16 02:14:39;;;;;;;4.35;2.10;;;;;;;7.31;76.50;99594.22;1740556;82;21010;-76
2022/05/16 02:17:05;;;;;;;5.28;3.05;;;;;;;7.28;76.30;99595.16;1732371;82;21113;-77
2022/05/16 02:19:32;;;;;;;6.95;2.20;;;;;;;7.26;76.16;99595.61;1732606;82;21125;-77
2022/05/16 02:24:43;;;;;;;3.42;2.22;;;;;;;7.22;75.97;99600.05;1732289;82;21130;-77
2022/05/16 02:27:12;;;;;;;5.65;2.50;;;;;;;7.21;75.67;99598.34;1732367;82;21110;-76
2022/05/16 02:29:40;;;;;;;5.92;2.27;;;;;;;7.20;75.68;99600.98;1732448;82;21088;-77
2022/05/16 02:32:07;;;;;;;4.50;2.22;;;;;;;7.18;75.81;99597.55;1732557;82;21042;-76
2022/05/16 02:34:34;;;;;;;4.72;2.40;;;;;;;7.15;76.11;99599.77;1732392;82;21498;-77
2022/05/16 02:37:00;;;;;;;6.35;2.33;;;;;;;7.13;76.46;99601.98;1732475;82;21565;-77
2022/05/16 02:39:27;;;;;;;4.35;2.27;;;;;;;7.09;76.69;99602.48;1733512;82;21620;-76
2022/05/16 02:41:54;;;;;;;2.75;2.33;;;;;;;7.04;77.14;99603.91;1735911;82;22072;-76
2022/05/16 02:44:21;;;;;;;6.08;2.33;;;;;;;6.97;77.56;99610.12;1735744;82;20996;-77
2022/05/16 02:46:48;;;;;;;4.40;2.08;;;;;;;6.95;77.82;99607.13;1735725;82;21115;-76
2022/05/16 02:49:14;;;;;;;7.22;2.40;;;;;;;6.91;78.24;99606.75;1735856;82;21047;-76
2022/05/16 02:51:41;;;;;;;4.83;2.33;;;;;;;6.92;78.35;99608.03;1735933;82;21023;-76
2022/05/16 02:54:07;;;;;;;2.58;2.37;;;;;;;6.91;78.53;99610.25;1736188;82;21539;-77
2022/05/16 02:56:34;;;;;;;8.33;2.92;;;;;;;6.92;78.74;99611.95;1735879;82;21044;-77
2022/05/16 02:59:00;;;;;;;5.03;2.20;;;;;;;6.93;78.69;99608.47;1735961;82;21129;-77
2022/05/16 03:01:26;;;;;;;7.83;3.00;;;;;;;6.98;78.68;99606.63;1735320;82;21121;-76
2022/05/16 03:03:53;;;;;;;5.78;2.20;;;;;;;7.06;78.51;99607.77;1735742;82;20987;-77
2022/05/16 03:06:19;;;;;;;3.27;2.35;;;;;;;7.14;78.37;99606.33;1735561;82;21126;-77
2022/05/16 03:08:46;;;;;;;7.08;2.77;;;;;;;7.19;78.29;99609.72;1735628;82;21097;-77
2022/05/16 03:11:13;;;;;;;12.75;3.37;;;;;;;7.23;78.28;99611.41;1735529;82;21576;-76
2022/05/16 03:13:39;;;;;;;3.65;2.40;;;;;;;7.29;78.19;99608.64;1735558;82;21488;-77
2022/05/16 03:16:06;;;;;;;3.50;2.50;;;;;;;7.36;78.06;99609.39;1735610;82;21561;-77
2022/05/16 03:18:32;;;;;;;4.20;2.45;;;;;;;7.43;77.95;99607.94;1735448;82;21542;-77
2022/05/16 03:20:59;;;;;;;8.08;2.67;;;;;;;7.50;77.92;99606.48;1735720;82;23454;-77
2022/05/16 03:23:26;;;;;;;7.42;2.62;;;;;;;7.55;77.85;99611.20;1735875;82;22129;-76
2022/05/16 03:25:53;;;;;;;5.05;2.70;;;;;;;7.61;77.79;99610.59;1735796;82;22269;-77
2022/05/16 03:28:19;;;;;;;6.90;2.77;;;;;;;7.68;77.79;99613.09;1735832;82;21074;-77
2022/05/16 03:30:46;;;;;;;9.98;2.42;;;;;;;7.74;77.66;99612.52;1735618;82;20991;-77
2022/05/16 03:33:13;;;;;;;5.62;2.60;;;;;;;7.79;77.34;99614.59;1735603;82;21051;-76
2022/05/16 03:35:39;;;;;;;5.83;2.83;;;;;;;7.85;77.38;99617.97;1735513;82;21119;-76
2022/05/16 03:38:07;;;;;;;6.22;2.80;;;;;;;7.88;77.29;99617.45;1735623;82;21577;-77
2022/05/16 03:40:45;;;;;;;3.98;2.98;;;;;;;7.95;77.12;99615.56;1735825;82;21086;-76
2022/05/16 03:43:13;;;;;;;7.97;2.72;;;;;;;8.02;76.90;99614.97;1735606;82;20999;-77
2022/05/16 03:45:41;;;;;;;12.55;2.85;;;;;;;8.09;76.70;99617.44;1735861;82;21129;-77
2022/05/16 03:48:08;;;;;;;6.78;2.85;;;;;;;8.17;76.50;99618.13;1735704;82;21132;-77
2022/05/16 03:50:35;;;;;;;5.42;2.72;;;;;;;8.27;76.29;99618.78;1735532;82;21078;-77
2022/05/16 03:53:01;;;;;;;7.25;2.80;;;;;;;8.36;76.25;99617.23;1735621;82;21325;-76
2022/05/16 03:55:29;;;;;;;7.60;3.15;;;;;;;8.46;75.73;99613.98;1735793;82;21028;-76
2022/05/16 03:57:56;;;;;;;9.70;3.12;;;;;;;8.54;75.73;99617.27;1735363;82;21054;-77
2022/05/16 04:00:22;;;;;;;5.92;3.35;;;;;;;8.65;75.46;99614.83;1735728;82;21118;-76
2022/05/16 04:02:49;;;;;;;6.25;3.20;;;;;;;8.76;74.76;99616.74;1756704;81;21085;-77
2022/05/16 04:05:19;;;;;;;6.90;3.02;;;;;;;8.85;74.07;99611.23;1756713;81;21085;-77
2022/05/16 04:07:47;;;;;;;4.67;2.98;;;;;;;8.96;73.63;99610.09;1725544;83;21071;-77
2022/05/16 04:10:14;;;;;;;8.30;2.90;;;;;;;9.05;72.93;99622.98;1756824;81;21014;-76
2022/05/16 04:12:41;;;;;;;8.05;2.75;;;;;;;9.14;71.81;99612.23;1757073;81;21140;-77
2022/05/16 04:15:10;;;;;;;7.17;2.30;;;;;;;9.22;71.35;99616.82;1725423;82;21074;-77
2022/05/16 04:17:36;;;;;;;5.67;2.77;;;;;;;9.30;70.99;99621.41;1756687;81;21117;-77
2022/05/16 04:20:04;;;;;;;3.80;2.50;;;;;;;9.39;70.15;99617.66;1757136;81;21014;-77
2022/05/16 04:22:31;;;;;;;10.32;2.75;;;;;;;9.49;70.50;99619.58;1725291;83;21665;-77
2022/05/16 04:24:57;;;;;;;4.33;2.40;;;;;;;9.61;69.95;99618.36;1757044;81;21677;-77
2022/05/16 04:27:25;;;;;;;3.80;2.08;;;;;;;9.75;69.17;99616.64;1756737;81;21069;-77
2022/05/16 04:29:51;;;;;;;6.37;2.10;;;;;;;9.84;67.35;99611.13;1725400;82;21075;-76
2022/05/16 04:32:17;;;;;;;5.53;1.70;;;;;;;9.92;67.04;99605.63;1757012;81;21065;-76
2022/05/16 04:34:44;;;;;;;3.85;1.95;;;;;;;9.99;67.17;99608.03;1756851;81;21053;-76
2022/05/16 04:37:12;;;;;;;3.65;1.90;;;;;;;10.10;66.69;99608.14;1726898;83;21121;-76
2022/05/16 04:39:39;;;;;;;6.75;2.15;;;;;;;10.21;66.90;99607.36;1754281;81;21140;-77
2022/05/16 04:44:40;;;;;;;4.72;2.20;;;;;;;10.42;65.10;99611.09;1711725;81;20991;-76
2022/05/16 04:47:07;;;;;;;5.17;2.52;;;;;;;10.50;64.44;99605.59;1752795;81;21006;-76
2022/05/16 04:49:33;;;;;;;9.48;3.15;;;;;;;10.58;63.83;99606.20;1752532;81;21216;-76
2022/05/16 04:52:00;;;;;;;4.80;2.00;;;;;;;10.68;64.03;99607.61;1752404;81;21061;-77
2022/05/16 04:54:27;;;;;;;7.75;2.22;;;;;;;10.81;63.82;99609.81;1752603;81;21129;-77
2022/05/16 04:56:54;;;;;;;3.83;2.15;;;;;;;10.92;63.56;99607.69;1752643;81;21518;-76
2022/05/16 04:59:21;;;;;;;4.75;2.58;;;;;;;11.04;62.09;99614.30;1752774;81;21619;-76
2022/05/16 05:01:48;;;;;;;4.00;1.95;;;;;;;11.12;62.17;99605.20;1752446;81;21115;-77
2022/05/16 05:04:15;;;;;;;4.28;1.90;;;;;;;11.24;61.17;99610.96;1752548;81;21034;-76
2022/05/16 05:06:42;;;;;;;4.92;2.50;;;;;;;11.32;61.13;99609.77;1752905;81;21042;-77
2022/05/16 05:09:09;;;;;;;5.58;2.10;;;;;;;11.45;60.81;99614.61;1752505;81;21065;-76
2022/05/16 05:14:33;;;;;;;;;;;;;;;11.69;59.94;99609.72;1755309;81;21151;-76
2022/05/16 05:17:03;;;;;;;7.53;1.60;;;;;;;11.80;57.35;99610.66;1752435;81;20147;-77
2022/05/16 05:19:29;;;;;;;7.58;1.60;;;;;;;11.87;56.90;99605.53;1751709;81;21061;-76
2022/05/16 05:21:57;;;;;;;5.05;1.67;;;;;;;11.94;56.69;99605.34;1752943;81;21063;-77
2022/05/16 05:24:24;;;;;;;2.67;1.30;;;;;;;11.99;57.25;99600.28;1752734;81;21054;-77
2022/05/16 05:26:50;;;;;;;2.72;1.72;;;;;;;12.08;57.28;99607.81;1752600;81;21104;-76
2022/05/16 05:29:18;;;;;;;7.75;1.70;;;;;;;12.19;57.57;99594.69;1752545;81;20991;-76
2022/05/16 05:31:44;;;;;;;6.65;1.37;;;;;;;12.30;57.49;99597.73;1752529;81;21065;-77
2022/05/16 05:34:12;;;;;;;3.50;1.60;;;;;;;12.44;57.33;99598.52;1753047;81;21050;-76
2022/05/16 05:36:40;;;;;;;5.17;1.72;;;;;;;12.59;56.45;99596.55;1752715;81;21096;-77
2022/05/16 05:39:07;;;;;;;4.70;1.12;;;;;;;12.73;55.99;99595.12;1752785;81;21119;-77
2022/05/16 05:41:34;;;;;;;3.83;1.30;;;;;;;12.88;53.33;99600.18;1752421;81;21050;-77
2022/05/16 05:44:01;;;;;;;2.17;1.30;;;;;;;12.92;52.85;99597.35;1752872;81;21007;-76
2022/05/16 05:46:36;;;;;;;6.40;1.52;;;;;;;12.99;52.59;99593.55;1753041;81;21041;-76
2022/05/16 05:49:03;;;;;;;;;;;;;;;13.08;53.01;99603.28;1753436;81;21462;-76
2022/05/16 05:51:31;;;;;;;10.48;1.70;;;;;;;13.18;53.31;99596.23;1752776;81;21263;-77
2022/05/16 05:53:57;;;;;;;6.95;1.92;;;;;;;13.26;53.20;99592.38;1753157;81;21066;-76
2022/05/16 05:56:24;;;;;;;4.08;1.80;;;;;;;13.37;52.07;99598.94;1752810;81;21164;-76
2022/05/16 05:58:50;;;;;;;4.25;1.50;;;;;;;13.48;52.72;99600.23;1779930;80;21061;-77
2022/05/16 06:01:17;;;;;;;5.15;1.82;;;;;;;13.60;51.42;99598.38;1788103;80;21117;-76
2022/05/16 06:03:44;;;;;;;6.78;1.65;;;;;;;13.66;50.32;99590.14;1788122;80;21049;-76
2022/05/16 06:06:11;;;;;;;4.35;1.60;;;;;;;13.75;50.02;99587.53;1788526;80;21014;-77
2022/05/16 06:08:37;;;;;;;3.90;1.25;;;;;;;13.84;50.23;99591.55;1787946;80;21059;-76
2022/05/16 06:11:04;;;;;;;3.40;1.22;;;;;;;13.97;49.28;99595.34;1788438;80;22363;-76
2022/05/16 06:13:31;;;;;;;2.87;1.40;;;;;;;14.09;48.21;99596.07;1788176;80;21592;-77
2022/05/16 06:15:58;;;;;;;3.25;1.05;;;;;;;14.19;48.12;99591.20;1788929;80;21784;-77
2022/05/16 06:18:25;;;;;;;4.03;1.07;;;;;;;14.26;46.87;99594.41;1790773;80;21140;-76
2022/05/16 06:20:52;;;;;;;4.40;1.47;;;;;;;14.33;47.62;99585.22;1791210;80;20971;-77
2022/05/16 06:23:19;;;;;;;3.47;1.80;;;;;;;14.41;47.85;99589.68;1790930;80;20999;-76
2022/05/16 06:25:46;;;;;;;8.95;2.10;;;;;;;14.41;47.95;99589.68;1791267;80;21109;-76
2022/05/16 06:28:17;;;;;;;5.60;1.98;;;;;;;14.43;47.35;99589.61;1791121;80;21513;-76
2022/05/16 06:30:46;;;;;;;9.53;1.87;;;;;;;14.44;45.93;99582.91;1791501;80;21097;-75
2022/05/16 06:33:14;;;;;;;4.83;1.27;;;;;;;14.42;46.50;99590.05;1791206;80;21077;-76
2022/05/16 06:35:42;;;;;;;6.92;1.70;;;;;;;14.38;46.54;99583.20;1791098;80;21105;-76
2022/05/16 06:38:16;;;;;;;4.12;1.90;;;;;;;14.38;46.09;99589.83;1791211;80;21148;-76
2022/05/16 06:40:46;;;;;;;5.00;1.20;;;;;;;14.44;45.44;99578.94;1791244;80;21076;-76
2022/05/16 06:43:13;;;;;;;2.87;1.00;;;;;;;14.58;44.56;99589.31;1791198;80;21046;-77
2022/05/16 06:45:41;;;;;;;5.28;1.25;;;;;;;14.70;43.96;99574.16;1791482;80;21141;-77
2022/05/16 06:48:08;;;;;;;8.35;1.00;;;;;;;14.86;45.00;99582.16;1782365;80;21061;-77
2022/05/16 06:50:35;;;;;;;6.53;1.00;;;;;;;15.04;44.49;99581.69;1754273;81;21026;-77
2022/05/16 06:53:03;;;;;;;1.55;0.80;;;;;;;15.16;44.90;99577.09;1754006;81;21159;-76
2022/05/16 06:55:30;;;;;;;6.97;0.85;;;;;;;15.30;43.69;99575.48;1753902;81;21545;-77
2022/05/16 06:57:57;;;;;;;2.05;1.00;;;;;;;15.40;44.00;99574.08;1753936;81;21805;-76
2022/05/16 07:00:26;;;;;;;2.35;0.93;;;;;;;15.48;44.04;99570.52;1753966;81;21747;-75
2022/05/16 07:02:52;;;;;;;6.03;0.90;;;;;;;15.56;43.45;99575.41;1753970;81;21073;-78
2022/05/16 07:05:19;;;;;;;1.15;0.90;;;;;;;15.59;45.49;99564.17;1754099;81;21164;-75
2022/05/16 07:07:45;;;;;;;3.10;0.95;;;;;;;15.75;44.13;99575.26;1753551;81;21046;-77
2022/05/16 07:10:12;;;;;;;2.22;0.85;;;;;;;15.80;44.80;99566.61;1753991;81;21065;-77
2022/05/16 07:12:40;;;;;;;2.27;1.02;;;;;;;15.87;45.93;99562.69;1753784;81;21525;-77
2022/05/16 07:15:08;;;;;;;7.80;0.98;;;;;;;15.93;45.60;99548.22;1753960;81;21045;-77
2022/05/16 07:17:35;;;;;;;7.10;0.70;;;;;;;15.87;41.35;99565.34;1753551;81;21152;-77
2022/05/16 07:20:02;;;;;;;3.92;0.70;;;;;;;15.68;42.86;99559.30;1753803;81;21050;-75
2022/05/16 07:22:28;;;;;;;3.60;1.05;;;;;;;15.56;43.24;99561.67;1753998;81;21116;-75
2022/05/16 07:24:57;;;;;;;1.92;0.80;;;;;;;15.58;43.34;99565.13;1754036;81;21002;-76
2022/05/16 07:30:12;;;;;;;2.70;0.82;;;;;;;15.51;44.06;99561.08;1754169;81;21795;-75
2022/05/16 07:32:42;;;;;;;13.05;1.10;;;;;;;15.41;43.98;99562.52;1753860;81;21577;-76
2022/05/16 07:35:22;;;;;;;5.28;1.00;;;;;;;15.36;44.64;99561.91;1753821;81;21113;-77
2022/05/16 07:37:49;;;;;;;2.83;0.90;;;;;;;15.43;45.18;99560.63;1754277;81;21521;-73
2022/05/16 07:40:16;;;;;;;8.70;1.05;;;;;;;15.61;45.33;99557.45;1753973;81;21033;-75
2022/05/16 07:42:43;;;;;;;4.65;1.07;;;;;;;15.77;44.87;99556.19;1753817;81;21579;-75
2022/05/16 07:45:10;;;;;;;5.05;1.05;;;;;;;15.93;42.37;99555.70;1753994;81;21049;-76
2022/05/16 07:47:38;;;;;;;3.10;0.90;;;;;;;15.92;42.29;99564.62;1753914;81;21073;-76
2022/05/16 07:50:07;;;;;;;4.62;0.80;;;;;;;15.86;42.43;99563.62;1754288;81;21086;-76
2022/05/16 07:52:34;;;;;;;1.87;0.78;;;;;;;15.79;42.26;99563.59;1753782;81;21057;-76
2022/05/16 07:55:01;;;;;;;3.10;0.80;;;;;;;15.70;43.35;99554.77;1754126;81;21156;-81
2022/05/16 07:57:27;;;;;;;3.27;1.10;;;;;;;15.63;43.90;99560.03;1756545;80;21163;-76
2022/05/16 07:59:55;;;;;;;6.05;1.02;;;;;;;15.61;44.11;99560.95;1718655;83;20992;-77
2022/05/16 08:02:21;;;;;;;1.35;0.93;;;;;;;15.74;44.09;99553.67;1754058;81;20984;-77
2022/05/16 08:04:48;;;;;;;7.65;0.88;;;;;;;16.01;44.07;99545.98;1754101;81;21106;-76
2022/05/16 08:07:15;;;;;;;3.30;0.98;;;;;;;16.32;43.69;99553.52;1732249;82;21081;-74
2022/05/16 08:12:32;;;;;;;3.92;0.95;;;;;;;16.84;39.65;99543.83;1754018;81;21103;-76
2022/05/16 08:15:00;;;;;;;6.53;1.22;;;;;;;16.89;38.97;99549.75;1752805;81;20995;-76
2022/05/16 08:17:28;;;;;;;5.37;1.10;;;;;;;16.99;39.94;99548.70;1753440;81;21012;-76
2022/05/16 08:19:56;;;;;;;5.08;0.88;;;;;;;17.01;38.10;99554.80;1753341;81;21547;-76
2022/05/16 08:22:30;;;;;;;5.22;0.90;;;;;;;17.01;38.75;99546.83;1753361;81;21531;-76
2022/05/16 08:24:56;;;;;;;4.87;0.95;;;;;;;17.21;37.66;99566.00;1753369;80;21000;-76
2022/05/16 08:27:23;;;;;;;2.02;0.70;;;;;;;17.35;36.80;99554.05;1753444;81;20992;-76
2022/05/16 08:29:50;;;;;;;3.05;0.95;;;;;;;17.41;37.26;99547.00;1753123;81;21004;-76
2022/05/16 08:32:19;;;;;;;4.25;1.10;;;;;;;17.35;37.18;99553.17;1753335;81;21143;-75
2022/05/16 08:34:54;;;;;;;12.65;1.10;;;;;;;17.26;37.17;99566.12;1753493;81;21633;-76
2022/05/16 08:40:07;;;;;;;2.08;0.75;;;;;;;17.15;37.90;99561.92;1753787;81;21115;-76
2022/05/16 08:42:56;;;;;;;3.45;1.10;;;;;;;17.33;37.81;99555.08;1753695;81;21019;-76
2022/05/16 08:45:39;;;;;;;3.95;1.17;;;;;;;17.46;34.46;99562.19;1753728;81;21188;-75
2022/05/16 08:48:33;;;;;;;7.85;1.85;;;;;;;17.44;34.20;99561.92;1740075;80;21596;-77
2022/05/16 08:51:24;;;;;;;4.72;1.50;;;;;;;17.22;35.41;99567.72;1697038;84;21539;-77
2022/05/16 08:53:59;;;;;;;5.22;1.98;;;;;;;17.02;35.98;99564.46;1698590;83;21515;-77
2022/05/16 08:56:30;;;;;;;3.87;1.70;;;;;;;16.93;36.14;99571.68;1698833;84;21082;-77
2022/05/16 08:59:09;;;;;;;8.28;2.20;;;;;;;16.83;36.41;99573.14;1698727;84;21625;-77
2022/05/16 09:01:50;;;;;;;5.25;1.40;;;;;;;16.71;36.53;99572.92;1698802;84;21109;-77
2022/05/16 09:04:49;;;;;;;5.87;1.37;;;;;;;16.61;36.03;99569.09;1684639;84;21543;-76
2022/05/16 09:07:30;;;;;;;3.80;1.67;;;;;;;16.67;36.38;99576.69;1699162;84;21177;-82
2022/05/16 09:10:24;;;;;;;3.67;2.25;;;;;;;16.97;36.77;99567.03;1698892;84;20987;-81
2022/05/16 09:12:59;;;;;;;7.65;1.30;;;;;;;17.28;35.93;99564.66;1698929;84;21091;-81
2022/05/16 09:15:56;;;;;;;8.18;1.42;;;;;;;17.55;34.41;99555.47;1689639;84;21059;-82
2022/05/16 09:19:04;;;;;;;3.60;1.65;;;;;;;17.76;33.24;99553.23;1698627;83;21070;-82
2022/05/16 09:21:39;;;;;;;9.30;1.50;;;;;;;17.91;33.24;99547.44;1698475;84;21110;-82
2022/05/16 09:24:10;;;;;;;5.37;1.52;;;;;;;18.05;32.23;99562.52;1698842;84;21074;-82
2022/05/16 09:26:42;;;;;;;6.28;1.90;;;;;;;17.91;32.75;99551.44;1698721;84;21569;-82
2022/05/16 09:29:26;;;;;;;4.28;1.42;;;;;;;17.72;32.52;99550.41;1698327;84;21137;-82
2022/05/16 09:31:56;;;;;;;5.12;1.50;;;;;;;17.46;32.46;99566.19;1698538;84;21144;-82
2022/05/16 09:34:23;;;;;;;3.25;1.47;;;;;;;17.38;33.41;99558.30;1698934;84;21062;-83
2022/05/16 09:36:50;;;;;;;13.68;1.67;;;;;;;17.50;32.91;99556.69;1698766;84;21138;-82
2022/05/16 09:39:21;;;;;;;4.37;1.27;;;;;;;17.54;33.62;99547.58;1698540;84;21152;-82
2022/05/16 09:42:05;;;;;;;5.83;1.20;;;;;;;17.55;32.89;99549.27;1698625;84;21130;-76
2022/05/16 09:44:46;;;;;;;5.03;1.00;;;;;;;17.50;33.51;99558.02;1698423;84;21530;-75
2022/05/16 09:47:23;;;;;;;5.22;1.25;;;;;;;17.36;33.45;99563.72;1698730;84;21114;-76
2022/05/16 09:50:16;;;;;;;2.02;1.30;;;;;;;17.40;33.68;99545.76;1698521;84;21012;-76
2022/05/16 09:52:47;;;;;;;4.70;0.95;;;;;;;17.47;32.66;99545.78;1698827;84;21111;-75
2022/05/16 09:55:27;;;;;;;8.23;1.37;;;;;;;17.47;32.74;99551.10;1698416;84;21054;-76
2022/05/16 09:58:01;;;;;;;2.45;0.80;;;;;;;17.45;33.58;99549.86;1705159;82;21088;-76
2022/05/16 10:00:42;;;;;;;8.58;1.55;;;;;;;17.48;33.43;99567.42;1707049;83;21085;-76
2022/05/16 10:03:31;;;;;;;7.03;1.00;;;;;;;17.48;33.35;99574.55;1709070;83;21454;-75
2022/05/16 10:06:04;;;;;;;6.80;1.17;;;;;;;17.34;33.14;99560.30;1708872;83;21898;-75
2022/05/16 10:08:40;;;;;;;14.18;1.25;;;;;;;17.38;34.43;99557.86;1726658;83;21621;-76
2022/05/16 10:11:10;;;;;;;;;;;;;;;17.59;34.04;99542.82;1721536;83;21062;-76
2022/05/16 10:13:36;;;;;;;1.90;0.65;;;;;;;17.72;33.68;99540.22;1698934;83;20883;-76
2022/05/16 10:16:05;;;;;;;2.12;0.90;;;;;;;17.77;32.26;99541.66;1699117;84;21153;-76
2022/05/16 10:18:32;;;;;;;3.58;1.20;;;;;;;17.78;33.48;99540.68;1699071;83;21155;-77
2022/05/16 10:21:03;;;;;;;6.08;0.90;;;;;;;17.83;33.51;99539.06;1699242;84;21075;-76
2022/05/16 10:23:34;;;;;;;3.90;0.72;;;;;;;18.02;33.34;99532.09;1698895;84;21178;-76
2022/05/16 10:26:06;;;;;;;2.25;1.07;;;;;;;18.29;33.23;99529.90;1683435;84;20998;-77
2022/05/16 10:28:37;;;;;;;5.30;0.70;;;;;;;18.55;33.54;99527.67;1699118;84;21130;-83
2022/05/16 10:33:53;;;;;;;4.00;0.85;;;;;;;18.71;30.71;99523.97;1698809;84;21016;-76
2022/05/16 10:36:28;;;;;;;5.12;1.00;;;;;;;18.47;30.30;99547.32;1699328;84;21067;-77
2022/05/16 10:39:07;;;;;;;6.90;1.20;;;;;;;18.18;31.70;99535.46;1698943;84;21031;-77
2022/05/16 10:41:51;;;;;;;4.45;0.80;;;;;;;18.06;32.80;99533.62;1699324;84;21711;-77
2022/05/16 10:44:39;;;;;;;1.53;1.13;;;;;;;18.12;33.67;99531.89;1692585;84;21113;-77
2022/05/16 10:47:28;;;;;;;4.08;1.10;;;;;;;18.26;32.51;99520.81;1699139;84;21011;-77
2022/05/16 10:50:08;;;;;;;3.83;1.30;;;;;;;18.33;32.36;99524.77;1699145;84;21011;-76
2022/05/16 10:52:47;;;;;;;2.98;0.98;;;;;;;18.33;32.16;99526.09;1699635;84;21601;-76
2022/05/16 10:55:13;;;;;;;2.10;0.90;;;;;;;18.25;31.81;99519.94;1726822;83;21125;-76
2022/05/16 10:58:17;;;;;;;6.87;1.02;;;;;;;18.35;32.79;99522.84;1727997;83;21178;-75
2022/05/16 11:01:07;;;;;;;4.05;0.70;;;;;;;18.60;33.00;99522.53;1727938;83;21046;-76
2022/05/16 11:03:48;;;;;;;4.28;1.17;;;;;;;18.77;31.28;99514.72;1727829;83;21053;-73
2022/05/16 11:06:35;;;;;;;2.25;0.80;;;;;;;18.76;30.81;99517.84;1727389;83;21093;-75
2022/05/16 11:09:41;;;;;;;7.53;0.80;;;;;;;18.63;30.96;99512.52;1712824;83;21576;-76
2022/05/16 11:12:35;;;;;;;2.47;1.10;;;;;;;18.57;31.95;99507.11;1727678;83;21080;-75
2022/05/16 11:15:37;;;;;;;8.95;1.00;;;;;;;18.55;31.17;99498.37;1727895;83;21006;-75
2022/05/16 11:18:41;;;;;;;1.85;0.90;;;;;;;18.47;32.13;99503.36;1667261;85;21597;-76
2022/05/16 11:21:33;;;;;;;1.90;0.80;;;;;;;18.46;31.45;99508.34;1667507;86;21074;-76
2022/05/16 11:24:31;;;;;;;1.62;0.80;;;;;;;18.46;31.85;99507.45;1713705;83;21533;-76
2022/05/16 11:27:09;;;;;;;8.05;1.25;;;;;;;18.47;31.06;99514.02;1727963;83;21549;-76
2022/05/16 11:29:49;;;;;;;4.28;1.25;;;;;;;18.48;31.08;99506.41;1727510;83;21084;-76
2022/05/16 11:32:50;;;;;;;1.85;1.10;;;;;;;18.54;31.89;99503.34;1720514;83;21615;-76
2022/05/16 11:35:43;;;;;;;7.65;1.20;;;;;;;18.60;31.25;99507.88;1727943;83;21530;-75
2022/05/16 11:38:46;;;;;;;8.80;1.10;;;;;;;18.62;31.14;99500.63;1727836;83;21124;-76
2022/05/16 11:41:55;;;;;;;5.28;0.70;;;;;;;18.56;31.14;99494.77;1728186;83;21534;-77
2022/05/16 11:44:39;;;;;;;2.55;1.02;;;;;;;18.76;31.67;99495.19;1693818;83;21096;-75
2022/05/16 11:47:20;;;;;;;9.50;1.07;;;;;;;19.03;31.42;99465.80;1727868;83;21076;-76
2022/05/16 11:50:24;;;;;;;8.30;1.30;;;;;;;19.14;29.69;99489.03;1727937;83;21128;-75
2022/05/16 11:53:22;;;;;;;1.80;1.00;;;;;;;18.98;30.00;99485.28;1727257;83;21051;-76
2022/05/16 12:01:38;;;;;;;13.75;0.98;;;;;;;19.17;29.59;99479.98;1671347;83;21030;-73
2022/05/16 12:04:15;;;;;;;7.75;1.47;;;;;;;18.99;29.13;99483.45;1722272;83;21066;-75
2022/05/16 12:06:48;;;;;;;3.83;1.60;;;;;;;18.68;29.65;99470.91;1722112;83;21034;-75
2022/05/16 12:09:20;;;;;;;8.38;1.42;;;;;;;18.55;30.66;99471.72;1722397;83;21113;-76
2022/05/16 12:11:58;;;;;;;11.97;1.72;;;;;;;18.65;30.28;99469.78;1722014;83;21042;-76
2022/05/16 12:14:35;;;;;;;7.45;4.80;;;;;;;18.83;29.43;99469.86;1722595;83;21094;-74
2022/05/16 12:17:18;;;;;;;1.70;1.60;;;;;;;18.91;28.98;99479.52;1722326;83;21031;-76
2022/05/16 12:19:48;;;;;;;6.33;2.50;;;;;;;19.04;30.09;99467.98;1721947;83;21035;-74
2022/05/16 12:22:25;;;;;;;1.82;0.80;;;;;;;19.16;29.04;99481.77;1721764;83;21133;-74
2022/05/16 12:25:00;;;;;;;6.03;1.72;;;;;;;19.04;29.41;99472.83;1718850;83;21117;-75
2022/05/16 12:27:43;;;;;;;2.47;1.35;;;;;;;18.96;30.11;99474.33;1722291;83;21086;-75
2022/05/16 12:30:32;;;;;;;2.98;1.10;;;;;;;18.90;30.73;99472.47;1722397;83;21098;-75
2022/05/16 12:33:00;;;;;;;7.00;0.90;;;;;;;18.87;30.47;99468.68;1722345;83;21059;-75